Salta, Argentina
Current Conditions -  °F | °C
As of 1:00 AM on Wednesday 26 Nov 2014 (Local Time) from SASA Reporting Station
Broken Clouds Broken Clouds  
Wind Chill: 63°   Ceiling: 10000
Heat Index: 63°   Visibility: 6mi
Dew Point: 61°   Wind: 0mph
Humidity: 94%   Direction: NA
Pressure: 30.03"   Gusts: NA
Location:  24.79°S, 65.41°W
Report Text: SASA 260400Z 00000KT 9999 SCT010 BKN10017/16 Q1017
Loading
Personal Weather Stations






























Interactive Weather Map New forecast layout! Learn more

10-Day Weather Forecast

Advertisements
Track Severe Weather on mobile